Ana Sayfa
METAR-TAF:

METAR-TAF

Havaalanları :

Mitchell, Güney Dakota, Amerika Birleşik Devletleri

Enlem: 43-46N, Boylam: 098-02W, yükseklik: 397 m

Güncel hava durumu gözlemi

Rapor saat 11:53 UTC de 1 saat ve 3 dakika önce yapıldı.
Rüzgar güney/güneybatıdan 6 kt
Sıcaklık 22°C
Nem 83%
Basınç 1001 hPa
Görüş mesafesi: 16.1 km
Açık gökyüzü

METAR: KMHE 161153Z AUTO 20006KT 10SM CLR 22/19 A2956 RMK AO2 SLP000 70003 T02220189 10228 20200 53021

Saat: 07:56 (12:56 UTC)


TAF: eksik

4.000'den fazla havaalanı için hava durumu gözlemleri ve tahminleri (METAR ve TAF raporları).

Kullanılabilir istasyonlar harita üzerinde sarı ve kırmızı noktalarla gösterilir.

İstasyonun adını görmek için fareyi noktanın üzerinde gezdirin.

Sonrasında hava gözlem ve tahminlerini görmek için tıklayın.

Haritayı değiştirmek için: yaklaştırmak için siyah artı işaretli yeşil düğmeye ve uzaklaştırmak için de eksi işaretli düğmeye hızla tıklayın; bitişik haritalar için yeşil okları kullanın.


METAR-TAF: